Terminal Aerodrome Forecast
Issued by NWS

Home | Current Version | Previous Version | Text Only | Print | Product List | Glossary On
Versions: 1 2 3 4 5 6 7 8 9 10 11 12 13 14 15 16 17 18 19 20 21 22 23
117
FTUS41 KPHI 221728
TAFPNE
TAF
KPNE 221728Z 2218/2318 28015G24KT P6SM SCT070
      TEMPO 2220/2222 -SHRA BKN070
     FM230000 30012G18KT P6SM SKC
     FM230500 32008KT P6SM SKC
     FM231600 27006KT P6SM SCT250=

USA.gov is the U.S. government's official web portal to all federal, state and local government web resources and services.